sensor_id;sensor_type;location;lat;lon;timestamp;temperature;humidity
18163;DHT22;9206;50.994;4.538;2022-11-20T00:01:29;3.20;99.90
18163;DHT22;9206;50.994;4.538;2022-11-20T00:04:18;3.20;99.90
18163;DHT22;9206;50.994;4.538;2022-11-20T00:07:08;3.20;99.90
18163;DHT22;9206;50.994;4.538;2022-11-20T00:09:56;3.30;99.90
18163;DHT22;9206;50.994;4.538;2022-11-20T00:12:46;3.20;99.90
18163;DHT22;9206;50.994;4.538;2022-11-20T00:15:35;3.30;99.90
18163;DHT22;9206;50.994;4.538;2022-11-20T00:18:28;3.20;99.90
18163;DHT22;9206;50.994;4.538;2022-11-20T00:21:24;3.20;99.90
18163;DHT22;9206;50.994;4.538;2022-11-20T00:24:26;3.30;99.90
18163;DHT22;9206;50.994;4.538;2022-11-20T00:27:16;3.20;99.90
18163;DHT22;9206;50.994;4.538;2022-11-20T00:30:05;3.20;99.90
18163;DHT22;9206;50.994;4.538;2022-11-20T00:32:57;3.30;99.90
18163;DHT22;9206;50.994;4.538;2022-11-20T00:35:50;3.30;99.90
18163;DHT22;9206;50.994;4.538;2022-11-20T00:38:38;3.30;99.90
18163;DHT22;9206;50.994;4.538;2022-11-20T00:41:25;3.30;99.90
18163;DHT22;9206;50.994;4.538;2022-11-20T00:44:13;3.30;99.90
18163;DHT22;9206;50.994;4.538;2022-11-20T00:47:02;3.30;99.90
18163;DHT22;9206;50.994;4.538;2022-11-20T00:49:51;3.30;99.90
18163;DHT22;9206;50.994;4.538;2022-11-20T00:52:38;3.30;99.90
18163;DHT22;9206;50.994;4.538;2022-11-20T00:55:31;3.30;99.90
18163;DHT22;9206;50.994;4.538;2022-11-20T00:58:22;3.30;99.90
18163;DHT22;9206;50.994;4.538;2022-11-20T01:01:14;3.30;99.90
18163;DHT22;9206;50.994;4.538;2022-11-20T01:04:16;3.30;99.90
18163;DHT22;9206;50.994;4.538;2022-11-20T01:07:06;3.30;99.90
18163;DHT22;9206;50.994;4.538;2022-11-20T01:10:00;3.20;99.90
18163;DHT22;9206;50.994;4.538;2022-11-20T01:12:47;3.30;99.90
18163;DHT22;9206;50.994;4.538;2022-11-20T01:15:55;3.30;99.90
18163;DHT22;9206;50.994;4.538;2022-11-20T01:18:52;3.30;99.90
18163;DHT22;9206;50.994;4.538;2022-11-20T01:21:49;3.30;99.90
18163;DHT22;9206;50.994;4.538;2022-11-20T01:24:38;3.30;99.90
18163;DHT22;9206;50.994;4.538;2022-11-20T01:27:40;3.30;99.90
18163;DHT22;9206;50.994;4.538;2022-11-20T01:30:28;3.30;99.90
18163;DHT22;9206;50.994;4.538;2022-11-20T01:33:22;3.30;99.90
18163;DHT22;9206;50.994;4.538;2022-11-20T01:36:11;3.30;99.90
18163;DHT22;9206;50.994;4.538;2022-11-20T01:39:01;3.30;99.90
18163;DHT22;9206;50.994;4.538;2022-11-20T01:41:52;3.30;99.90
18163;DHT22;9206;50.994;4.538;2022-11-20T01:44:59;3.30;99.90
18163;DHT22;9206;50.994;4.538;2022-11-20T01:47:46;3.30;99.90
18163;DHT22;9206;50.994;4.538;2022-11-20T01:50:35;3.30;99.90
18163;DHT22;9206;50.994;4.538;2022-11-20T01:53:28;3.20;99.90
18163;DHT22;9206;50.994;4.538;2022-11-20T01:56:17;3.20;99.90
18163;DHT22;9206;50.994;4.538;2022-11-20T01:59:11;3.20;99.90
18163;DHT22;9206;50.994;4.538;2022-11-20T02:02:00;3.20;99.90
18163;DHT22;9206;50.994;4.538;2022-11-20T02:04:51;3.20;99.90
18163;DHT22;9206;50.994;4.538;2022-11-20T02:07:43;3.20;99.90
18163;DHT22;9206;50.994;4.538;2022-11-20T02:10:37;3.20;99.90
18163;DHT22;9206;50.994;4.538;2022-11-20T02:13:27;3.20;99.90
18163;DHT22;9206;50.994;4.538;2022-11-20T02:16:33;3.20;99.90
18163;DHT22;9206;50.994;4.538;2022-11-20T02:19:24;3.20;99.90
18163;DHT22;9206;50.994;4.538;2022-11-20T02:22:17;3.20;99.90
18163;DHT22;9206;50.994;4.538;2022-11-20T02:25:19;3.10;99.90
18163;DHT22;9206;50.994;4.538;2022-11-20T02:28:08;3.10;99.90
18163;DHT22;9206;50.994;4.538;2022-11-20T02:31:19;3.10;99.90
18163;DHT22;9206;50.994;4.538;2022-11-20T02:34:12;3.00;99.90
18163;DHT22;9206;50.994;4.538;2022-11-20T02:37:05;3.00;99.90
18163;DHT22;9206;50.994;4.538;2022-11-20T02:39:53;3.00;99.90
18163;DHT22;9206;50.994;4.538;2022-11-20T02:42:45;3.00;99.90
18163;DHT22;9206;50.994;4.538;2022-11-20T02:45:32;3.00;99.90
18163;DHT22;9206;50.994;4.538;2022-11-20T02:48:22;3.00;99.90
18163;DHT22;9206;50.994;4.538;2022-11-20T02:51:15;3.00;99.90
18163;DHT22;9206;50.994;4.538;2022-11-20T02:54:02;3.00;99.90
18163;DHT22;9206;50.994;4.538;2022-11-20T02:57:02;3.00;99.90
18163;DHT22;9206;50.994;4.538;2022-11-20T02:59:51;3.00;99.90
18163;DHT22;9206;50.994;4.538;2022-11-20T03:02:44;3.00;99.90
18163;DHT22;9206;50.994;4.538;2022-11-20T03:05:31;3.00;99.90
18163;DHT22;9206;50.994;4.538;2022-11-20T03:08:27;3.00;99.90
18163;DHT22;9206;50.994;4.538;2022-11-20T03:11:20;3.10;99.90
18163;DHT22;9206;50.994;4.538;2022-11-20T03:14:09;3.10;99.90
18163;DHT22;9206;50.994;4.538;2022-11-20T03:16:58;3.10;99.90
18163;DHT22;9206;50.994;4.538;2022-11-20T03:19:48;3.10;99.90
18163;DHT22;9206;50.994;4.538;2022-11-20T03:22:42;3.10;99.90
18163;DHT22;9206;50.994;4.538;2022-11-20T03:25:35;3.10;99.90
18163;DHT22;9206;50.994;4.538;2022-11-20T03:28:41;3.10;99.90
18163;DHT22;9206;50.994;4.538;2022-11-20T03:31:35;3.10;99.90
18163;DHT22;9206;50.994;4.538;2022-11-20T03:34:27;3.20;99.90
18163;DHT22;9206;50.994;4.538;2022-11-20T03:37:14;3.20;99.90
18163;DHT22;9206;50.994;4.538;2022-11-20T03:40:04;3.20;99.90
18163;DHT22;9206;50.994;4.538;2022-11-20T03:42:53;3.30;99.90
18163;DHT22;9206;50.994;4.538;2022-11-20T03:45:43;3.30;99.90
18163;DHT22;9206;50.994;4.538;2022-11-20T03:48:32;3.30;99.90
18163;DHT22;9206;50.994;4.538;2022-11-20T03:51:27;3.30;99.90
18163;DHT22;9206;50.994;4.538;2022-11-20T03:54:16;3.30;99.90
18163;DHT22;9206;50.994;4.538;2022-11-20T03:57:06;3.20;99.90
18163;DHT22;9206;50.994;4.538;2022-11-20T03:59:56;3.20;99.90
18163;DHT22;9206;50.994;4.538;2022-11-20T04:02:44;3.20;99.90
18163;DHT22;9206;50.994;4.538;2022-11-20T04:05:32;3.20;99.90
18163;DHT22;9206;50.994;4.538;2022-11-20T04:08:24;3.30;99.90
18163;DHT22;9206;50.994;4.538;2022-11-20T04:11:15;3.30;99.90
18163;DHT22;9206;50.994;4.538;2022-11-20T04:14:04;3.30;99.90
18163;DHT22;9206;50.994;4.538;2022-11-20T04:16:52;3.20;99.90
18163;DHT22;9206;50.994;4.538;2022-11-20T04:19:41;3.20;99.90
18163;DHT22;9206;50.994;4.538;2022-11-20T04:22:31;3.20;99.90
18163;DHT22;9206;50.994;4.538;2022-11-20T04:25:21;3.10;99.90
18163;DHT22;9206;50.994;4.538;2022-11-20T04:28:08;3.10;99.90
18163;DHT22;9206;50.994;4.538;2022-11-20T04:31:02;3.10;99.90
18163;DHT22;9206;50.994;4.538;2022-11-20T04:33:49;3.10;99.90
18163;DHT22;9206;50.994;4.538;2022-11-20T04:36:40;3.10;99.90
18163;DHT22;9206;50.994;4.538;2022-11-20T04:39:28;3.00;99.90
18163;DHT22;9206;50.994;4.538;2022-11-20T04:42:22;3.00;99.90
18163;DHT22;9206;50.994;4.538;2022-11-20T04:45:22;2.90;99.90
18163;DHT22;9206;50.994;4.538;2022-11-20T04:48:10;2.80;99.90
18163;DHT22;9206;50.994;4.538;2022-11-20T04:51:02;2.70;99.90
18163;DHT22;9206;50.994;4.538;2022-11-20T04:53:51;2.60;99.90
18163;DHT22;9206;50.994;4.538;2022-11-20T04:56:41;2.50;99.90
18163;DHT22;9206;50.994;4.538;2022-11-20T04:59:30;2.40;99.90
18163;DHT22;9206;50.994;4.538;2022-11-20T05:02:21;2.40;99.90
18163;DHT22;9206;50.994;4.538;2022-11-20T05:05:11;2.30;99.90
18163;DHT22;9206;50.994;4.538;2022-11-20T05:08:04;2.30;99.90
18163;DHT22;9206;50.994;4.538;2022-11-20T05:10:52;2.30;99.90
18163;DHT22;9206;50.994;4.538;2022-11-20T05:13:42;2.40;99.90
18163;DHT22;9206;50.994;4.538;2022-11-20T05:16:31;2.50;99.90
18163;DHT22;9206;50.994;4.538;2022-11-20T05:19:24;2.50;99.90
18163;DHT22;9206;50.994;4.538;2022-11-20T05:22:14;2.60;99.90
18163;DHT22;9206;50.994;4.538;2022-11-20T05:25:04;2.60;99.90
18163;DHT22;9206;50.994;4.538;2022-11-20T05:27:53;2.70;99.90
18163;DHT22;9206;50.994;4.538;2022-11-20T05:30:42;2.80;99.90
18163;DHT22;9206;50.994;4.538;2022-11-20T05:33:35;2.70;99.90
18163;DHT22;9206;50.994;4.538;2022-11-20T05:36:24;2.80;99.90
18163;DHT22;9206;50.994;4.538;2022-11-20T05:39:11;2.80;99.90
18163;DHT22;9206;50.994;4.538;2022-11-20T05:42:01;2.90;99.90
18163;DHT22;9206;50.994;4.538;2022-11-20T05:45:07;2.90;99.90
18163;DHT22;9206;50.994;4.538;2022-11-20T05:47:57;2.90;99.90
18163;DHT22;9206;50.994;4.538;2022-11-20T05:50:47;2.90;99.90
18163;DHT22;9206;50.994;4.538;2022-11-20T05:53:35;2.90;99.90
18163;DHT22;9206;50.994;4.538;2022-11-20T05:56:38;2.90;99.90
18163;DHT22;9206;50.994;4.538;2022-11-20T05:59:26;2.90;99.90
18163;DHT22;9206;50.994;4.538;2022-11-20T06:02:13;2.90;99.90
18163;DHT22;9206;50.994;4.538;2022-11-20T06:05:01;2.90;99.90
18163;DHT22;9206;50.994;4.538;2022-11-20T06:07:50;2.80;99.90
18163;DHT22;9206;50.994;4.538;2022-11-20T06:10:38;2.70;99.90
18163;DHT22;9206;50.994;4.538;2022-11-20T06:13:35;2.70;99.90
18163;DHT22;9206;50.994;4.538;2022-11-20T06:16:24;2.70;99.90
18163;DHT22;9206;50.994;4.538;2022-11-20T06:19:11;2.70;99.90
18163;DHT22;9206;50.994;4.538;2022-11-20T06:22:04;2.70;99.90
18163;DHT22;9206;50.994;4.538;2022-11-20T06:24:54;2.70;99.90
18163;DHT22;9206;50.994;4.538;2022-11-20T06:27:47;2.70;99.90
18163;DHT22;9206;50.994;4.538;2022-11-20T06:30:35;2.70;99.90
18163;DHT22;9206;50.994;4.538;2022-11-20T06:33:23;2.80;99.90
18163;DHT22;9206;50.994;4.538;2022-11-20T06:36:15;2.80;99.90
18163;DHT22;9206;50.994;4.538;2022-11-20T06:39:03;2.80;99.90
18163;DHT22;9206;50.994;4.538;2022-11-20T06:41:56;2.80;99.90
18163;DHT22;9206;50.994;4.538;2022-11-20T06:44:44;2.80;99.90
18163;DHT22;9206;50.994;4.538;2022-11-20T06:47:32;2.90;99.90
18163;DHT22;9206;50.994;4.538;2022-11-20T06:50:19;2.80;99.90
18163;DHT22;9206;50.994;4.538;2022-11-20T06:53:12;2.80;99.90
18163;DHT22;9206;50.994;4.538;2022-11-20T06:56:03;2.90;99.90
18163;DHT22;9206;50.994;4.538;2022-11-20T06:58:52;2.90;99.90
18163;DHT22;9206;50.994;4.538;2022-11-20T07:01:40;2.90;99.90
18163;DHT22;9206;50.994;4.538;2022-11-20T07:04:28;3.00;99.90
18163;DHT22;9206;50.994;4.538;2022-11-20T07:07:21;3.10;99.90
18163;DHT22;9206;50.994;4.538;2022-11-20T07:10:09;3.10;99.90
18163;DHT22;9206;50.994;4.538;2022-11-20T07:12:58;3.10;99.90
18163;DHT22;9206;50.994;4.538;2022-11-20T07:15:49;3.10;99.90
18163;DHT22;9206;50.994;4.538;2022-11-20T07:18:43;3.20;99.90
18163;DHT22;9206;50.994;4.538;2022-11-20T07:21:36;3.20;99.90
18163;DHT22;9206;50.994;4.538;2022-11-20T07:24:24;3.30;99.90
18163;DHT22;9206;50.994;4.538;2022-11-20T07:27:14;3.30;99.90
18163;DHT22;9206;50.994;4.538;2022-11-20T07:30:08;3.30;99.90
18163;DHT22;9206;50.994;4.538;2022-11-20T07:32:57;3.40;99.90
18163;DHT22;9206;50.994;4.538;2022-11-20T07:35:44;3.40;99.90
18163;DHT22;9206;50.994;4.538;2022-11-20T07:38:32;3.50;99.90
18163;DHT22;9206;50.994;4.538;2022-11-20T07:41:20;3.60;99.90
18163;DHT22;9206;50.994;4.538;2022-11-20T07:44:07;3.60;99.90
18163;DHT22;9206;50.994;4.538;2022-11-20T07:46:56;3.70;99.90
18163;DHT22;9206;50.994;4.538;2022-11-20T07:49:45;3.70;99.90
18163;DHT22;9206;50.994;4.538;2022-11-20T07:52:36;3.80;99.90
18163;DHT22;9206;50.994;4.538;2022-11-20T07:55:31;3.80;99.90
18163;DHT22;9206;50.994;4.538;2022-11-20T07:58:24;3.90;99.90
18163;DHT22;9206;50.994;4.538;2022-11-20T08:01:15;4.00;99.90
18163;DHT22;9206;50.994;4.538;2022-11-20T08:04:02;4.00;99.90
18163;DHT22;9206;50.994;4.538;2022-11-20T08:06:51;4.10;99.90
18163;DHT22;9206;50.994;4.538;2022-11-20T08:09:39;4.20;99.90
18163;DHT22;9206;50.994;4.538;2022-11-20T08:12:26;4.20;99.90
18163;DHT22;9206;50.994;4.538;2022-11-20T08:15:31;4.20;99.90
18163;DHT22;9206;50.994;4.538;2022-11-20T08:18:18;4.30;99.90
18163;DHT22;9206;50.994;4.538;2022-11-20T08:21:06;4.30;99.90
18163;DHT22;9206;50.994;4.538;2022-11-20T08:23:55;4.40;99.90
18163;DHT22;9206;50.994;4.538;2022-11-20T08:26:42;4.40;99.90
18163;DHT22;9206;50.994;4.538;2022-11-20T08:29:29;4.50;99.90
18163;DHT22;9206;50.994;4.538;2022-11-20T08:32:16;4.50;99.90
18163;DHT22;9206;50.994;4.538;2022-11-20T08:35:04;4.50;99.90
18163;DHT22;9206;50.994;4.538;2022-11-20T08:37:52;4.60;99.90
18163;DHT22;9206;50.994;4.538;2022-11-20T08:40:40;4.60;99.90
18163;DHT22;9206;50.994;4.538;2022-11-20T08:43:48;4.60;99.90
18163;DHT22;9206;50.994;4.538;2022-11-20T08:46:36;4.70;99.90
18163;DHT22;9206;50.994;4.538;2022-11-20T08:49:24;4.70;99.90
18163;DHT22;9206;50.994;4.538;2022-11-20T08:52:11;4.80;99.90
18163;DHT22;9206;50.994;4.538;2022-11-20T08:54:58;4.80;99.90
18163;DHT22;9206;50.994;4.538;2022-11-20T08:57:47;4.80;99.90
18163;DHT22;9206;50.994;4.538;2022-11-20T09:00:35;4.80;99.90
18163;DHT22;9206;50.994;4.538;2022-11-20T09:03:22;4.80;99.90
18163;DHT22;9206;50.994;4.538;2022-11-20T09:06:13;4.90;99.90
18163;DHT22;9206;50.994;4.538;2022-11-20T09:09:02;4.80;99.90
18163;DHT22;9206;50.994;4.538;2022-11-20T09:11:55;4.90;99.90
18163;DHT22;9206;50.994;4.538;2022-11-20T09:14:44;4.90;99.90
18163;DHT22;9206;50.994;4.538;2022-11-20T09:17:31;5.00;99.90
18163;DHT22;9206;50.994;4.538;2022-11-20T09:20:18;5.00;99.90
18163;DHT22;9206;50.994;4.538;2022-11-20T09:23:07;5.00;99.90
18163;DHT22;9206;50.994;4.538;2022-11-20T09:26:02;5.10;99.90
18163;DHT22;9206;50.994;4.538;2022-11-20T09:28:53;5.10;99.90
18163;DHT22;9206;50.994;4.538;2022-11-20T09:31:43;5.20;99.90
18163;DHT22;9206;50.994;4.538;2022-11-20T09:34:36;5.30;99.90
18163;DHT22;9206;50.994;4.538;2022-11-20T09:37:23;5.30;99.90
18163;DHT22;9206;50.994;4.538;2022-11-20T09:40:19;5.40;99.90
18163;DHT22;9206;50.994;4.538;2022-11-20T09:43:17;5.50;99.90
18163;DHT22;9206;50.994;4.538;2022-11-20T09:46:12;5.60;99.90
18163;DHT22;9206;50.994;4.538;2022-11-20T09:49:18;5.60;99.90
18163;DHT22;9206;50.994;4.538;2022-11-20T09:52:18;5.70;99.90
18163;DHT22;9206;50.994;4.538;2022-11-20T09:55:10;5.80;99.90
18163;DHT22;9206;50.994;4.538;2022-11-20T09:57:59;5.90;99.90
18163;DHT22;9206;50.994;4.538;2022-11-20T10:00:47;5.90;99.90
18163;DHT22;9206;50.994;4.538;2022-11-20T10:03:54;6.00;99.90
18163;DHT22;9206;50.994;4.538;2022-11-20T10:06:47;6.00;99.90
18163;DHT22;9206;50.994;4.538;2022-11-20T10:09:40;6.10;99.90
18163;DHT22;9206;50.994;4.538;2022-11-20T10:12:37;6.10;99.90
18163;DHT22;9206;50.994;4.538;2022-11-20T10:15:36;6.10;99.90
18163;DHT22;9206;50.994;4.538;2022-11-20T10:18:40;6.20;99.90
18163;DHT22;9206;50.994;4.538;2022-11-20T10:21:38;6.20;99.90
18163;DHT22;9206;50.994;4.538;2022-11-20T10:24:48;6.40;99.90
18163;DHT22;9206;50.994;4.538;2022-11-20T10:27:55;6.40;99.90
18163;DHT22;9206;50.994;4.538;2022-11-20T10:30:46;6.50;99.90
18163;DHT22;9206;50.994;4.538;2022-11-20T10:33:42;6.50;99.90
18163;DHT22;9206;50.994;4.538;2022-11-20T10:36:35;6.60;99.90
18163;DHT22;9206;50.994;4.538;2022-11-20T10:39:34;6.70;99.90
18163;DHT22;9206;50.994;4.538;2022-11-20T10:42:29;6.90;99.90
18163;DHT22;9206;50.994;4.538;2022-11-20T10:45:21;7.00;99.90
18163;DHT22;9206;50.994;4.538;2022-11-20T10:48:21;7.10;99.90
18163;DHT22;9206;50.994;4.538;2022-11-20T10:51:16;7.30;99.90
18163;DHT22;9206;50.994;4.538;2022-11-20T10:54:16;7.50;99.90
18163;DHT22;9206;50.994;4.538;2022-11-20T10:57:19;7.60;99.90
18163;DHT22;9206;50.994;4.538;2022-11-20T11:00:13;7.80;99.90
18163;DHT22;9206;50.994;4.538;2022-11-20T11:03:08;8.10;99.90
18163;DHT22;9206;50.994;4.538;2022-11-20T11:06:10;8.40;99.90
18163;DHT22;9206;50.994;4.538;2022-11-20T11:09:27;8.90;99.90
18163;DHT22;9206;50.994;4.538;2022-11-20T11:12:23;9.00;99.90
18163;DHT22;9206;50.994;4.538;2022-11-20T11:15:24;9.00;99.90
18163;DHT22;9206;50.994;4.538;2022-11-20T11:18:30;8.90;99.90
18163;DHT22;9206;50.994;4.538;2022-11-20T11:21:25;8.80;99.90
18163;DHT22;9206;50.994;4.538;2022-11-20T11:24:20;8.70;99.90
18163;DHT22;9206;50.994;4.538;2022-11-20T11:27:12;8.70;99.90
18163;DHT22;9206;50.994;4.538;2022-11-20T11:30:15;8.70;99.90
18163;DHT22;9206;50.994;4.538;2022-11-20T11:33:04;8.70;99.90
18163;DHT22;9206;50.994;4.538;2022-11-20T11:35:56;8.80;99.90
18163;DHT22;9206;50.994;4.538;2022-11-20T11:38:45;8.80;99.90
18163;DHT22;9206;50.994;4.538;2022-11-20T11:41:34;8.80;99.90
18163;DHT22;9206;50.994;4.538;2022-11-20T11:44:24;8.80;99.90
18163;DHT22;9206;50.994;4.538;2022-11-20T11:47:37;8.90;99.90
18163;DHT22;9206;50.994;4.538;2022-11-20T11:50:30;8.90;99.90
18163;DHT22;9206;50.994;4.538;2022-11-20T11:53:19;9.00;99.90
18163;DHT22;9206;50.994;4.538;2022-11-20T11:56:09;9.20;99.90
18163;DHT22;9206;50.994;4.538;2022-11-20T11:59:01;9.30;99.90
18163;DHT22;9206;50.994;4.538;2022-11-20T12:02:02;9.40;99.90
18163;DHT22;9206;50.994;4.538;2022-11-20T12:04:59;9.40;99.90
18163;DHT22;9206;50.994;4.538;2022-11-20T12:07:52;9.30;99.90
18163;DHT22;9206;50.994;4.538;2022-11-20T12:10:45;9.30;99.90
18163;DHT22;9206;50.994;4.538;2022-11-20T12:13:48;9.20;99.90
18163;DHT22;9206;50.994;4.538;2022-11-20T12:16:39;9.20;99.90
18163;DHT22;9206;50.994;4.538;2022-11-20T12:19:29;9.00;99.90
18163;DHT22;9206;50.994;4.538;2022-11-20T12:22:29;9.00;99.90
18163;DHT22;9206;50.994;4.538;2022-11-20T12:25:26;8.90;99.90
18163;DHT22;9206;50.994;4.538;2022-11-20T12:28:39;8.80;99.90
18163;DHT22;9206;50.994;4.538;2022-11-20T12:31:48;8.70;99.90
18163;DHT22;9206;50.994;4.538;2022-11-20T12:34:49;8.60;99.90
18163;DHT22;9206;50.994;4.538;2022-11-20T12:37:54;8.50;99.90
18163;DHT22;9206;50.994;4.538;2022-11-20T12:40:51;8.40;99.90
18163;DHT22;9206;50.994;4.538;2022-11-20T12:43:46;8.30;99.90
18163;DHT22;9206;50.994;4.538;2022-11-20T12:47:03;8.20;99.90
18163;DHT22;9206;50.994;4.538;2022-11-20T12:50:02;8.10;99.90
18163;DHT22;9206;50.994;4.538;2022-11-20T12:52:56;8.00;99.90
18163;DHT22;9206;50.994;4.538;2022-11-20T12:55:49;8.00;99.90
18163;DHT22;9206;50.994;4.538;2022-11-20T12:58:44;7.90;99.90
18163;DHT22;9206;50.994;4.538;2022-11-20T13:01:42;7.90;99.90
18163;DHT22;9206;50.994;4.538;2022-11-20T13:05:01;7.90;99.90
18163;DHT22;9206;50.994;4.538;2022-11-20T13:07:53;7.90;99.90
18163;DHT22;9206;50.994;4.538;2022-11-20T13:10:49;7.90;99.90
18163;DHT22;9206;50.994;4.538;2022-11-20T13:13:45;7.90;99.90
18163;DHT22;9206;50.994;4.538;2022-11-20T13:16:41;7.90;99.90
18163;DHT22;9206;50.994;4.538;2022-11-20T13:19:32;7.90;99.90
18163;DHT22;9206;50.994;4.538;2022-11-20T13:22:25;7.90;99.90
18163;DHT22;9206;50.994;4.538;2022-11-20T13:25:24;8.00;99.90
18163;DHT22;9206;50.994;4.538;2022-11-20T13:28:28;8.10;99.90
18163;DHT22;9206;50.994;4.538;2022-11-20T13:31:28;8.10;99.90
18163;DHT22;9206;50.994;4.538;2022-11-20T13:34:23;8.10;99.90
18163;DHT22;9206;50.994;4.538;2022-11-20T13:37:27;8.00;99.90
18163;DHT22;9206;50.994;4.538;2022-11-20T13:40:27;8.10;99.90
18163;DHT22;9206;50.994;4.538;2022-11-20T13:43:27;8.00;99.90
18163;DHT22;9206;50.994;4.538;2022-11-20T13:46:16;8.00;99.90
18163;DHT22;9206;50.994;4.538;2022-11-20T13:49:17;8.00;99.90
18163;DHT22;9206;50.994;4.538;2022-11-20T13:52:28;7.90;99.90
18163;DHT22;9206;50.994;4.538;2022-11-20T13:55:23;7.80;99.90
18163;DHT22;9206;50.994;4.538;2022-11-20T13:58:26;7.80;99.90
18163;DHT22;9206;50.994;4.538;2022-11-20T14:01:21;7.80;99.90
18163;DHT22;9206;50.994;4.538;2022-11-20T14:04:15;7.70;99.90
18163;DHT22;9206;50.994;4.538;2022-11-20T14:07:05;7.70;99.90
18163;DHT22;9206;50.994;4.538;2022-11-20T14:09:54;7.70;99.90
18163;DHT22;9206;50.994;4.538;2022-11-20T14:12:44;7.80;99.90
18163;DHT22;9206;50.994;4.538;2022-11-20T14:15:35;7.70;99.90
18163;DHT22;9206;50.994;4.538;2022-11-20T14:18:26;7.70;99.90
18163;DHT22;9206;50.994;4.538;2022-11-20T14:21:23;7.80;99.90
18163;DHT22;9206;50.994;4.538;2022-11-20T14:24:12;7.80;99.90
18163;DHT22;9206;50.994;4.538;2022-11-20T14:27:02;7.80;99.90
18163;DHT22;9206;50.994;4.538;2022-11-20T14:29:50;7.80;99.90
18163;DHT22;9206;50.994;4.538;2022-11-20T14:32:39;7.70;99.90
18163;DHT22;9206;50.994;4.538;2022-11-20T14:35:30;7.80;99.90
18163;DHT22;9206;50.994;4.538;2022-11-20T14:38:21;7.80;99.90
18163;DHT22;9206;50.994;4.538;2022-11-20T14:41:17;7.80;99.90
18163;DHT22;9206;50.994;4.538;2022-11-20T14:44:05;7.80;99.90
18163;DHT22;9206;50.994;4.538;2022-11-20T14:46:55;7.80;99.90
18163;DHT22;9206;50.994;4.538;2022-11-20T14:49:47;7.90;99.90
18163;DHT22;9206;50.994;4.538;2022-11-20T14:52:35;7.90;99.90
18163;DHT22;9206;50.994;4.538;2022-11-20T14:55:27;7.90;99.90
18163;DHT22;9206;50.994;4.538;2022-11-20T14:58:21;7.90;99.90
18163;DHT22;9206;50.994;4.538;2022-11-20T15:01:12;7.90;99.90
18163;DHT22;9206;50.994;4.538;2022-11-20T15:04:05;7.90;99.90
18163;DHT22;9206;50.994;4.538;2022-11-20T15:07:00;7.90;99.90
18163;DHT22;9206;50.994;4.538;2022-11-20T15:10:43;7.90;99.90
18163;DHT22;9206;50.994;4.538;2022-11-20T15:13:20;7.90;99.90
18163;DHT22;9206;50.994;4.538;2022-11-20T15:16:17;7.90;99.90
18163;DHT22;9206;50.994;4.538;2022-11-20T15:19:16;7.90;99.90
18163;DHT22;9206;50.994;4.538;2022-11-20T15:22:11;8.00;99.90
18163;DHT22;9206;50.994;4.538;2022-11-20T15:25:11;8.00;99.90
18163;DHT22;9206;50.994;4.538;2022-11-20T15:27:59;8.00;99.90
18163;DHT22;9206;50.994;4.538;2022-11-20T15:30:47;8.00;99.90
18163;DHT22;9206;50.994;4.538;2022-11-20T15:33:37;8.10;99.90
18163;DHT22;9206;50.994;4.538;2022-11-20T15:36:24;8.10;99.90
18163;DHT22;9206;50.994;4.538;2022-11-20T15:39:16;8.10;99.90
18163;DHT22;9206;50.994;4.538;2022-11-20T15:42:04;8.10;99.90
18163;DHT22;9206;50.994;4.538;2022-11-20T15:45:12;8.20;99.90
18163;DHT22;9206;50.994;4.538;2022-11-20T15:48:01;8.20;99.90
18163;DHT22;9206;50.994;4.538;2022-11-20T15:50:58;8.20;99.90
18163;DHT22;9206;50.994;4.538;2022-11-20T15:53:50;8.30;99.90
18163;DHT22;9206;50.994;4.538;2022-11-20T15:56:39;8.30;99.90
18163;DHT22;9206;50.994;4.538;2022-11-20T15:59:28;8.30;99.90
18163;DHT22;9206;50.994;4.538;2022-11-20T16:02:16;8.20;99.90
18163;DHT22;9206;50.994;4.538;2022-11-20T16:05:10;8.20;99.90
18163;DHT22;9206;50.994;4.538;2022-11-20T16:07:58;8.20;99.90
18163;DHT22;9206;50.994;4.538;2022-11-20T16:10:48;8.20;99.90
18163;DHT22;9206;50.994;4.538;2022-11-20T16:13:38;8.20;99.90
18163;DHT22;9206;50.994;4.538;2022-11-20T16:16:43;8.10;99.90
18163;DHT22;9206;50.994;4.538;2022-11-20T16:19:31;8.10;99.90
18163;DHT22;9206;50.994;4.538;2022-11-20T16:22:21;8.10;99.90
18163;DHT22;9206;50.994;4.538;2022-11-20T16:25:09;8.00;99.90
18163;DHT22;9206;50.994;4.538;2022-11-20T16:27:57;8.00;99.90
18163;DHT22;9206;50.994;4.538;2022-11-20T16:30:46;8.00;99.90
18163;DHT22;9206;50.994;4.538;2022-11-20T16:33:34;7.90;99.90
18163;DHT22;9206;50.994;4.538;2022-11-20T16:36:23;7.90;99.90
18163;DHT22;9206;50.994;4.538;2022-11-20T16:39:11;7.90;99.90
18163;DHT22;9206;50.994;4.538;2022-11-20T16:42:03;7.90;99.90
18163;DHT22;9206;50.994;4.538;2022-11-20T16:44:53;7.80;99.90
18163;DHT22;9206;50.994;4.538;2022-11-20T16:47:42;7.90;99.90
18163;DHT22;9206;50.994;4.538;2022-11-20T16:50:29;7.90;99.90
18163;DHT22;9206;50.994;4.538;2022-11-20T16:53:19;7.90;99.90
18163;DHT22;9206;50.994;4.538;2022-11-20T16:56:13;8.00;99.90
18163;DHT22;9206;50.994;4.538;2022-11-20T16:59:02;8.10;99.90
18163;DHT22;9206;50.994;4.538;2022-11-20T17:01:50;8.10;99.90
18163;DHT22;9206;50.994;4.538;2022-11-20T17:04:39;8.20;99.90
18163;DHT22;9206;50.994;4.538;2022-11-20T17:07:27;8.30;99.90
18163;DHT22;9206;50.994;4.538;2022-11-20T17:10:14;8.30;99.90
18163;DHT22;9206;50.994;4.538;2022-11-20T17:13:02;8.30;99.90
18163;DHT22;9206;50.994;4.538;2022-11-20T17:16:01;8.30;99.90
18163;DHT22;9206;50.994;4.538;2022-11-20T17:18:49;8.40;99.90
18163;DHT22;9206;50.994;4.538;2022-11-20T17:21:39;8.40;99.90
18163;DHT22;9206;50.994;4.538;2022-11-20T17:24:27;8.30;99.90
18163;DHT22;9206;50.994;4.538;2022-11-20T17:27:17;8.20;99.90
18163;DHT22;9206;50.994;4.538;2022-11-20T17:30:06;8.10;99.90
18163;DHT22;9206;50.994;4.538;2022-11-20T17:32:54;8.00;99.90
18163;DHT22;9206;50.994;4.538;2022-11-20T17:35:42;7.90;99.90
18163;DHT22;9206;50.994;4.538;2022-11-20T17:38:31;7.80;99.90
18163;DHT22;9206;50.994;4.538;2022-11-20T17:41:20;7.80;99.90
18163;DHT22;9206;50.994;4.538;2022-11-20T17:44:09;7.80;99.90
18163;DHT22;9206;50.994;4.538;2022-11-20T17:46:58;7.70;99.90
18163;DHT22;9206;50.994;4.538;2022-11-20T17:49:45;7.70;99.90
18163;DHT22;9206;50.994;4.538;2022-11-20T17:52:33;7.60;99.90
18163;DHT22;9206;50.994;4.538;2022-11-20T17:55:23;7.60;99.90
18163;DHT22;9206;50.994;4.538;2022-11-20T17:58:10;7.60;99.90
18163;DHT22;9206;50.994;4.538;2022-11-20T18:01:03;7.60;99.90
18163;DHT22;9206;50.994;4.538;2022-11-20T18:03:51;7.50;99.90
18163;DHT22;9206;50.994;4.538;2022-11-20T18:06:38;7.50;99.90
18163;DHT22;9206;50.994;4.538;2022-11-20T18:09:26;7.40;99.90
18163;DHT22;9206;50.994;4.538;2022-11-20T18:12:15;7.40;99.90
18163;DHT22;9206;50.994;4.538;2022-11-20T18:15:02;7.40;99.90
18163;DHT22;9206;50.994;4.538;2022-11-20T18:17:50;7.40;99.90
18163;DHT22;9206;50.994;4.538;2022-11-20T18:20:37;7.40;99.90
18163;DHT22;9206;50.994;4.538;2022-11-20T18:23:26;7.40;99.90
18163;DHT22;9206;50.994;4.538;2022-11-20T18:26:13;7.40;99.90
18163;DHT22;9206;50.994;4.538;2022-11-20T18:29:03;7.40;99.90
18163;DHT22;9206;50.994;4.538;2022-11-20T18:31:52;7.40;99.90
18163;DHT22;9206;50.994;4.538;2022-11-20T18:34:39;7.40;99.90
18163;DHT22;9206;50.994;4.538;2022-11-20T18:37:27;7.40;99.90
18163;DHT22;9206;50.994;4.538;2022-11-20T18:40:14;7.40;99.90
18163;DHT22;9206;50.994;4.538;2022-11-20T18:43:02;7.40;99.90
18163;DHT22;9206;50.994;4.538;2022-11-20T18:46:08;7.40;99.90